createdAt,value
2018-03-07T00:00:41.865Z,35.93
2018-03-07T00:03:12.233Z,40.03
2018-03-07T00:05:41.320Z,37.13
2018-03-07T00:08:11.016Z,35.27
2018-03-07T00:10:40.304Z,31.60
2018-03-07T00:13:09.375Z,35.90
2018-03-07T00:15:39.752Z,39.50
2018-03-07T00:18:09.394Z,35.40
2018-03-07T00:20:42.553Z,35.73
2018-03-07T00:23:11.658Z,30.47
2018-03-07T00:25:40.743Z,36.23
2018-03-07T00:28:09.879Z,34.70
2018-03-07T00:30:39.007Z,33.70
2018-03-07T00:33:08.440Z,36.27
2018-03-07T00:35:38.624Z,44.00
2018-03-07T00:38:08.422Z,52.83
2018-03-07T00:40:37.990Z,52.47
2018-03-07T00:43:07.076Z,50.80
2018-03-07T00:45:37.115Z,44.37
2018-03-07T00:48:06.225Z,44.57
2018-03-07T00:50:35.696Z,42.10
2018-03-07T00:53:05.467Z,42.40
2018-03-07T00:55:34.540Z,40.30
2018-03-07T00:58:03.641Z,43.87
2018-03-07T01:00:32.706Z,39.30
2018-03-07T01:03:01.881Z,38.80
2018-03-07T01:05:30.953Z,38.97
2018-03-07T01:08:00.068Z,39.50
2018-03-07T01:10:29.184Z,34.80
2018-03-07T01:12:58.281Z,32.93
2018-03-07T01:15:27.342Z,30.33
2018-03-07T01:17:56.412Z,31.77
2018-03-07T01:20:25.611Z,29.63
2018-03-07T01:22:55.219Z,27.13
2018-03-07T01:25:24.285Z,27.77
2018-03-07T01:27:53.361Z,26.90
2018-03-07T01:30:22.659Z,26.90
2018-03-07T01:32:51.738Z,27.10
2018-03-07T01:35:21.382Z,25.13
2018-03-07T01:37:50.514Z,25.10
2018-03-07T01:40:20.172Z,26.43
2018-03-07T01:42:49.668Z,26.37
2018-03-07T01:45:19.091Z,24.50
2018-03-07T01:47:48.154Z,24.90
2018-03-07T01:50:17.953Z,25.27
2018-03-07T01:52:47.800Z,26.60
2018-03-07T01:55:17.060Z,26.30
2018-03-07T01:57:46.581Z,26.50
2018-03-07T02:00:15.700Z,25.37
2018-03-07T02:02:44.831Z,24.30
2018-03-07T02:05:14.318Z,24.90
2018-03-07T02:07:43.408Z,26.57
2018-03-07T02:10:13.065Z,25.00
2018-03-07T02:12:42.188Z,25.73
2018-03-07T02:15:11.331Z,25.33
2018-03-07T02:17:40.549Z,25.07
2018-03-07T02:20:10.856Z,24.97
2018-03-07T02:22:40.525Z,26.60
2018-03-07T02:25:09.614Z,26.73
2018-03-07T02:27:38.986Z,27.07
2018-03-07T02:30:08.351Z,28.60
2018-03-07T02:32:39.014Z,26.80
2018-03-07T02:35:10.060Z,27.63
2018-03-07T02:37:39.155Z,28.47
2018-03-07T02:40:09.043Z,27.23
2018-03-07T02:42:38.761Z,27.27
2018-03-07T02:45:08.528Z,25.00
2018-03-07T02:47:38.486Z,25.63
2018-03-07T02:50:08.649Z,23.80
2018-03-07T02:52:37.899Z,24.50
2018-03-07T02:55:07.990Z,23.37
2018-03-07T02:57:39.132Z,24.40
2018-03-07T03:00:08.522Z,23.47
2018-03-07T03:02:38.714Z,24.43
2018-03-07T03:05:08.951Z,26.37
2018-03-07T03:07:39.119Z,25.37
2018-03-07T03:10:08.860Z,25.07
2018-03-07T03:12:38.967Z,26.17
2018-03-07T03:15:08.035Z,27.00
2018-03-07T03:17:37.779Z,24.70
2018-03-07T03:20:06.858Z,23.13
2018-03-07T03:22:36.259Z,25.47
2018-03-07T03:25:05.363Z,26.03
2018-03-07T03:27:34.695Z,23.03
2018-03-07T03:30:04.569Z,23.20
2018-03-07T03:32:34.406Z,21.10
2018-03-07T03:35:03.470Z,21.50
2018-03-07T03:37:32.578Z,21.03
2018-03-07T03:40:01.685Z,20.80
2018-03-07T03:42:30.740Z,22.27
2018-03-07T03:44:59.840Z,21.93
2018-03-07T03:47:28.910Z,19.67
2018-03-07T03:49:59.163Z,22.10
2018-03-07T03:52:29.599Z,33.23
2018-03-07T03:54:58.741Z,22.17
2018-03-07T03:57:28.525Z,21.20
2018-03-07T03:59:57.587Z,19.30
2018-03-07T04:02:26.750Z,20.60
2018-03-07T04:04:55.816Z,19.93
2018-03-07T04:07:24.879Z,19.70
2018-03-07T04:09:55.133Z,19.83
2018-03-07T04:12:24.203Z,19.63
2018-03-07T04:14:53.283Z,24.30
2018-03-07T04:17:22.352Z,18.73
2018-03-07T04:19:51.557Z,20.43
2018-03-07T04:22:20.651Z,19.57
2018-03-07T04:24:50.198Z,20.07
2018-03-07T04:27:19.381Z,21.87
2018-03-07T04:29:48.451Z,22.40
2018-03-07T04:32:17.522Z,20.93
2018-03-07T04:34:46.591Z,20.83
2018-03-07T04:37:15.656Z,20.33
2018-03-07T04:39:44.734Z,20.33
2018-03-07T04:42:13.907Z,20.80
2018-03-07T04:44:43.578Z,20.13
2018-03-07T04:47:14.376Z,20.13
2018-03-07T04:49:44.444Z,20.07
2018-03-07T04:52:13.510Z,19.83
2018-03-07T04:54:42.755Z,20.17
2018-03-07T04:57:12.798Z,18.97
2018-03-07T04:59:42.060Z,19.40
2018-03-07T05:02:11.212Z,21.43
2018-03-07T05:04:40.851Z,21.67
2018-03-07T05:07:10.586Z,20.07
2018-03-07T05:09:39.648Z,19.93
2018-03-07T05:12:08.740Z,20.10
2018-03-07T05:14:38.073Z,20.27
2018-03-07T05:17:07.372Z,21.63
2018-03-07T05:19:36.435Z,22.50
2018-03-07T05:22:06.288Z,23.43
2018-03-07T05:24:35.350Z,23.80
2018-03-07T05:27:04.763Z,21.47
2018-03-07T05:29:34.123Z,21.07
2018-03-07T05:32:03.254Z,21.83
2018-03-07T05:34:32.310Z,20.13
2018-03-07T05:37:01.429Z,20.30
2018-03-07T05:39:30.699Z,17.87
2018-03-07T05:41:59.764Z,20.80
2018-03-07T05:44:29.388Z,19.20
2018-03-07T05:46:59.532Z,19.07
2018-03-07T05:49:29.098Z,20.50
2018-03-07T05:51:59.753Z,20.47
2018-03-07T05:54:28.834Z,20.03
2018-03-07T05:56:58.593Z,20.57
2018-03-07T05:59:27.659Z,19.47
2018-03-07T06:01:57.578Z,18.80
2018-03-07T06:04:26.754Z,20.10
2018-03-07T06:06:56.982Z,20.90
2018-03-07T06:09:26.904Z,20.10
2018-03-07T06:11:56.626Z,19.67
2018-03-07T06:14:25.876Z,17.77
2018-03-07T06:16:55.115Z,17.90
2018-03-07T06:19:24.550Z,18.73
2018-03-07T06:21:53.707Z,21.60
2018-03-07T06:24:22.919Z,60.00
2018-03-07T06:26:51.995Z,44.57
2018-03-07T06:29:21.597Z,19.70
2018-03-07T06:31:50.943Z,23.93
2018-03-07T06:34:20.247Z,20.33
2018-03-07T06:36:49.728Z,18.67
2018-03-07T06:39:19.147Z,20.30
2018-03-07T06:41:48.609Z,19.67
2018-03-07T06:44:18.290Z,19.00
2018-03-07T06:46:48.717Z,20.67
2018-03-07T06:49:18.630Z,21.50
2018-03-07T06:51:47.787Z,22.37
2018-03-07T06:54:16.987Z,22.63
2018-03-07T06:56:47.031Z,21.53
2018-03-07T06:59:16.268Z,19.27
2018-03-07T07:01:46.404Z,18.80
2018-03-07T07:04:15.466Z,19.73
2018-03-07T07:06:45.078Z,18.87
2018-03-07T07:09:14.729Z,20.13
2018-03-07T07:11:43.923Z,20.20
2018-03-07T07:14:13.016Z,17.50
2018-03-07T07:16:42.261Z,19.30
2018-03-07T07:19:11.691Z,17.80
2018-03-07T07:21:40.882Z,20.70
2018-03-07T07:24:10.300Z,28.20
2018-03-07T07:26:40.023Z,32.63
2018-03-07T07:29:09.166Z,22.37
2018-03-07T07:31:38.239Z,22.23
2018-03-07T07:34:08.988Z,19.47
2018-03-07T07:36:38.262Z,19.33
2018-03-07T07:39:07.616Z,19.20
2018-03-07T07:41:36.802Z,18.33
2018-03-07T07:44:06.574Z,16.70
2018-03-07T07:46:35.722Z,19.57
2018-03-07T07:49:05.060Z,19.53
2018-03-07T07:51:34.295Z,19.13
2018-03-07T07:54:03.369Z,19.57
2018-03-07T07:56:32.609Z,21.43
2018-03-07T07:59:01.817Z,18.20
2018-03-07T08:01:31.798Z,27.20
2018-03-07T08:04:01.831Z,22.73
2018-03-07T08:06:31.473Z,20.43
2018-03-07T08:09:00.694Z,18.47
2018-03-07T08:11:30.514Z,18.00
2018-03-07T08:13:59.814Z,27.47
2018-03-07T08:16:29.802Z,32.70
2018-03-07T08:18:58.907Z,18.30
2018-03-07T08:21:28.377Z,20.57
2018-03-07T08:23:57.446Z,19.67
2018-03-07T08:26:26.939Z,19.83
2018-03-07T08:28:56.130Z,19.37
2018-03-07T08:31:25.422Z,20.87
2018-03-07T08:33:55.829Z,19.87
2018-03-07T08:36:25.559Z,22.03
2018-03-07T08:38:54.945Z,19.33
2018-03-07T08:41:24.594Z,18.17
2018-03-07T08:43:54.074Z,19.17
2018-03-07T08:46:24.140Z,19.40
2018-03-07T08:48:53.950Z,19.37
2018-03-07T08:51:23.663Z,17.73
2018-03-07T08:53:52.740Z,18.80
2018-03-07T08:56:22.021Z,20.47
2018-03-07T08:58:52.468Z,17.50
2018-03-07T09:01:21.537Z,18.70
2018-03-07T09:03:51.095Z,19.97
2018-03-07T09:06:21.414Z,19.13
2018-03-07T09:08:51.677Z,19.50
2018-03-07T09:11:21.364Z,19.97
2018-03-07T09:13:51.004Z,17.57
2018-03-07T09:16:20.118Z,20.57
2018-03-07T09:18:49.371Z,18.20
2018-03-07T09:21:19.015Z,18.03
2018-03-07T09:23:48.156Z,19.43
2018-03-07T09:26:17.264Z,17.97
2018-03-07T09:28:46.473Z,19.33
2018-03-07T09:31:15.940Z,18.53
2018-03-07T09:33:45.208Z,18.87
2018-03-07T09:36:15.034Z,18.80
2018-03-07T09:38:45.019Z,15.37
2018-03-07T09:41:14.130Z,20.07
2018-03-07T09:43:43.207Z,18.03
2018-03-07T09:46:12.408Z,19.27
2018-03-07T09:48:41.470Z,18.63
2018-03-07T09:51:10.610Z,18.27
2018-03-07T09:53:39.728Z,18.90
2018-03-07T09:56:08.834Z,18.73
2018-03-07T09:58:37.946Z,17.73
2018-03-07T10:01:07.214Z,19.57
2018-03-07T10:03:36.289Z,19.03
2018-03-07T10:06:05.486Z,22.10
2018-03-07T10:08:34.691Z,23.00
2018-03-07T10:11:03.975Z,21.50
2018-03-07T10:13:33.458Z,22.10
2018-03-07T10:16:02.994Z,22.03
2018-03-07T10:18:32.450Z,17.57
2018-03-07T10:21:01.812Z,21.77
2018-03-07T10:23:30.884Z,20.73
2018-03-07T10:26:00.383Z,24.00
2018-03-07T10:28:29.907Z,23.83
2018-03-07T10:30:59.060Z,26.77
2018-03-07T10:33:28.649Z,28.67
2018-03-07T10:35:57.832Z,25.70
2018-03-07T10:38:27.081Z,23.33
2018-03-07T10:40:56.625Z,26.23
2018-03-07T10:43:26.337Z,25.50
2018-03-07T10:45:57.300Z,27.43
2018-03-07T10:48:26.499Z,25.03
2018-03-07T10:50:55.646Z,22.90
2018-03-07T10:53:25.004Z,23.77
2018-03-07T10:55:54.501Z,23.53
2018-03-07T10:58:24.007Z,23.30
2018-03-07T11:00:54.065Z,24.00
2018-03-07T11:03:23.430Z,22.63
2018-03-07T11:05:52.586Z,21.47
2018-03-07T11:08:21.764Z,21.07
2018-03-07T11:10:50.963Z,24.17
2018-03-07T11:13:20.530Z,23.63
2018-03-07T11:15:49.608Z,20.67
2018-03-07T11:18:19.382Z,23.30
2018-03-07T11:20:49.107Z,23.60
2018-03-07T11:23:18.766Z,23.70
2018-03-07T11:25:48.190Z,21.23
2018-03-07T11:28:17.255Z,24.63
2018-03-07T11:30:46.343Z,22.87
2018-03-07T11:33:15.972Z,23.37
2018-03-07T11:35:45.189Z,21.67
2018-03-07T11:38:14.926Z,21.80
2018-03-07T11:40:45.636Z,21.10
2018-03-07T11:43:14.843Z,21.80
2018-03-07T11:45:44.640Z,22.87
2018-03-07T11:48:15.277Z,24.13
2018-03-07T11:50:44.397Z,22.57
2018-03-07T11:53:13.474Z,21.77
2018-03-07T11:55:42.534Z,24.80
2018-03-07T11:58:12.440Z,20.77
2018-03-07T12:00:41.821Z,26.00
2018-03-07T12:03:11.000Z,25.83
2018-03-07T12:05:40.279Z,22.90
2018-03-07T12:08:09.547Z,22.40
2018-03-07T12:10:38.825Z,23.57
2018-03-07T12:13:07.898Z,23.87
2018-03-07T12:15:36.979Z,26.00
2018-03-07T12:18:06.042Z,27.37
2018-03-07T12:20:35.108Z,21.43
2018-03-07T12:23:04.188Z,24.77
2018-03-07T12:25:33.259Z,25.00
2018-03-07T12:28:04.540Z,23.23
2018-03-07T12:30:33.611Z,23.80
2018-03-07T12:33:02.750Z,21.00
2018-03-07T12:35:31.875Z,23.90
2018-03-07T12:38:01.027Z,22.57
2018-03-07T12:40:30.167Z,24.00
2018-03-07T12:42:59.485Z,22.10
2018-03-07T12:45:28.571Z,22.67
2018-03-07T12:47:57.658Z,23.63
2018-03-07T12:50:26.725Z,24.33
2018-03-07T12:52:55.813Z,23.37
2018-03-07T12:55:24.879Z,23.50
2018-03-07T12:57:53.954Z,22.57
2018-03-07T13:00:23.023Z,25.13
2018-03-07T13:02:52.106Z,26.57
2018-03-07T13:05:21.182Z,22.93
2018-03-07T13:07:50.316Z,27.13
2018-03-07T13:10:19.972Z,23.27
2018-03-07T13:12:49.052Z,23.23
2018-03-07T13:15:18.124Z,22.67
2018-03-07T13:17:47.630Z,23.03
2018-03-07T13:20:17.055Z,24.23
2018-03-07T13:22:46.354Z,22.53
2018-03-07T13:25:15.491Z,25.20
2018-03-07T13:27:44.562Z,23.93
2018-03-07T13:30:13.663Z,22.17
2018-03-07T13:32:42.727Z,24.13
2018-03-07T13:35:11.874Z,24.40
2018-03-07T13:37:40.946Z,31.87
2018-03-07T13:40:10.021Z,23.10
2018-03-07T13:42:39.463Z,22.93
2018-03-07T13:45:08.525Z,22.60
2018-03-07T13:47:38.094Z,24.17
2018-03-07T13:50:07.168Z,23.93
2018-03-07T13:52:38.393Z,26.57
2018-03-07T13:55:07.576Z,25.50
2018-03-07T13:57:36.665Z,27.03
2018-03-07T14:00:23.209Z,26.43
2018-03-07T14:02:52.275Z,23.80
2018-03-07T14:05:23.020Z,23.80
2018-03-07T14:07:55.483Z,24.13
2018-03-07T14:10:29.015Z,25.17
2018-03-07T14:12:58.334Z,25.70
2018-03-07T14:15:27.454Z,38.93
2018-03-07T14:17:56.539Z,27.00
2018-03-07T14:20:25.755Z,26.77
2018-03-07T14:22:54.827Z,26.10
2018-03-07T14:25:23.899Z,28.13
2018-03-07T14:27:53.044Z,28.37
2018-03-07T14:30:22.372Z,26.73
2018-03-07T14:32:51.507Z,27.60
2018-03-07T14:35:20.570Z,29.20
2018-03-07T14:37:50.082Z,28.20
2018-03-07T14:40:19.254Z,29.17
2018-03-07T14:42:48.318Z,27.93
2018-03-07T14:45:17.387Z,27.87
2018-03-07T14:47:46.504Z,27.67
2018-03-07T14:50:15.571Z,26.90
2018-03-07T14:52:44.653Z,26.93
2018-03-07T14:55:13.785Z,30.07
2018-03-07T14:57:42.850Z,30.00
2018-03-07T15:00:11.919Z,36.83
2018-03-07T15:02:40.983Z,36.93
2018-03-07T15:05:10.077Z,29.53
2018-03-07T15:07:39.168Z,27.73
2018-03-07T15:10:08.600Z,26.77
2018-03-07T15:12:37.693Z,27.23
2018-03-07T15:15:06.983Z,60.50
2018-03-07T15:17:36.055Z,29.03
2018-03-07T15:20:06.654Z,28.57
2018-03-07T15:22:35.859Z,27.33
2018-03-07T15:25:05.093Z,26.93
2018-03-07T15:27:34.214Z,29.47
2018-03-07T15:30:04.912Z,30.47
2018-03-07T15:32:34.014Z,32.30
2018-03-07T15:35:08.852Z,31.33
2018-03-07T15:37:37.890Z,33.33
2018-03-07T15:40:08.577Z,31.67
2018-03-07T15:42:37.822Z,32.83
2018-03-07T15:45:06.899Z,32.20
2018-03-07T15:47:36.407Z,35.47
2018-03-07T15:50:05.479Z,35.13
2018-03-07T15:52:34.581Z,33.30
2018-03-07T15:55:03.825Z,33.20
2018-03-07T15:57:32.941Z,35.60
2018-03-07T16:00:02.000Z,35.40
2018-03-07T16:02:31.078Z,34.00
2018-03-07T16:05:00.176Z,32.67
2018-03-07T16:07:29.253Z,35.73
2018-03-07T16:09:58.325Z,35.17
2018-03-07T16:12:27.386Z,34.27
2018-03-07T16:14:56.451Z,37.00
2018-03-07T16:17:26.142Z,39.83
2018-03-07T16:19:55.517Z,41.10
2018-03-07T16:22:24.582Z,34.03
2018-03-07T16:24:53.668Z,31.67
2018-03-07T16:27:23.272Z,32.13
2018-03-07T16:29:52.948Z,33.80
2018-03-07T16:32:22.137Z,31.30
2018-03-07T16:34:51.463Z,33.83
2018-03-07T16:37:20.536Z,33.50
2018-03-07T16:39:49.641Z,35.70
2018-03-07T16:42:18.746Z,37.03
2018-03-07T16:44:47.883Z,36.93
2018-03-07T16:47:17.244Z,37.50
2018-03-07T16:49:46.338Z,35.03
2018-03-07T16:52:15.476Z,36.37
2018-03-07T16:54:44.638Z,37.97
2018-03-07T16:57:13.716Z,36.60
2018-03-07T16:59:42.792Z,39.33
2018-03-07T17:02:11.951Z,39.70
2018-03-07T17:04:41.677Z,35.60
2018-03-07T17:07:10.883Z,40.93
2018-03-07T17:09:39.978Z,41.53
2018-03-07T17:12:09.398Z,38.90
2018-03-07T17:14:38.473Z,39.97
2018-03-07T17:17:07.732Z,43.47
2018-03-07T17:19:37.130Z,50.40
2018-03-07T17:22:06.318Z,43.27
2018-03-07T17:24:35.650Z,46.23
2018-03-07T17:27:04.831Z,57.20
2018-03-07T17:29:34.600Z,44.03
2018-03-07T17:32:03.972Z,44.20
2018-03-07T17:34:33.123Z,42.43
2018-03-07T17:37:03.261Z,42.10
2018-03-07T17:39:32.598Z,41.10
2018-03-07T17:42:02.814Z,40.43
2018-03-07T17:44:32.173Z,44.20
2018-03-07T17:47:02.043Z,42.40
2018-03-07T17:49:31.246Z,48.87
2018-03-07T17:52:00.432Z,49.63
2018-03-07T17:54:29.871Z,49.23
2018-03-07T17:56:59.050Z,45.40
2018-03-07T17:59:32.760Z,45.40
2018-03-07T18:02:02.243Z,47.57
2018-03-07T18:04:31.647Z,47.03
2018-03-07T18:07:01.517Z,48.10
2018-03-07T18:09:31.760Z,48.10
2018-03-07T18:12:00.951Z,43.47
2018-03-07T18:14:30.166Z,44.03
2018-03-07T18:16:59.424Z,41.27
2018-03-07T18:19:29.394Z,41.43
2018-03-07T18:21:58.503Z,39.80
2018-03-07T18:24:27.607Z,39.73
2018-03-07T18:26:56.685Z,38.67
2018-03-07T18:29:25.879Z,41.03
2018-03-07T18:31:55.208Z,37.07
2018-03-07T18:34:24.549Z,41.77
2018-03-07T18:36:53.986Z,41.73
2018-03-07T18:39:25.181Z,40.27
2018-03-07T18:41:54.283Z,40.00
2018-03-07T18:44:24.117Z,39.90
2018-03-07T18:46:54.305Z,70.93
2018-03-07T18:49:23.840Z,46.07
2018-03-07T18:51:53.788Z,39.73
2018-03-07T18:54:22.910Z,43.77
2018-03-07T18:56:52.031Z,46.00
2018-03-07T18:59:21.814Z,43.97
2018-03-07T19:01:50.896Z,43.33
2018-03-07T19:04:19.976Z,41.97
2018-03-07T19:06:50.393Z,44.97
2018-03-07T19:09:19.975Z,45.30
2018-03-07T19:11:49.062Z,48.13
2018-03-07T19:14:18.146Z,49.27
2018-03-07T19:16:47.247Z,52.97
2018-03-07T19:19:16.367Z,52.40
2018-03-07T19:21:45.564Z,48.83
2018-03-07T19:24:15.435Z,46.50
2018-03-07T19:26:45.102Z,48.00
2018-03-07T19:29:14.787Z,48.00
2018-03-07T19:31:43.973Z,47.07
2018-03-07T19:34:13.353Z,49.10
2018-03-07T19:36:45.926Z,48.73
2018-03-07T19:39:24.405Z,51.20
2018-03-07T19:41:55.298Z,47.67
2018-03-07T19:44:24.512Z,49.33
2018-03-07T19:46:55.034Z,48.37
2018-03-07T19:49:24.370Z,48.40
2018-03-07T19:51:53.534Z,52.03
2018-03-07T19:54:23.220Z,51.67
2018-03-07T19:56:53.297Z,55.73
2018-03-07T19:59:23.280Z,55.20
2018-03-07T20:01:52.931Z,60.37
2018-03-07T20:04:22.117Z,57.53
2018-03-07T20:06:51.488Z,56.37
2018-03-07T20:09:20.658Z,52.33
2018-03-07T20:11:49.862Z,53.43
2018-03-07T20:14:19.247Z,51.57
2018-03-07T20:16:48.978Z,51.67
2018-03-07T20:19:18.493Z,48.13
2018-03-07T20:21:47.775Z,54.07
2018-03-07T20:24:16.910Z,53.87
2018-03-07T20:26:47.405Z,51.53
2018-03-07T20:29:16.691Z,115.70
2018-03-07T20:31:46.868Z,57.37
2018-03-07T20:34:16.016Z,57.90
2018-03-07T20:36:45.163Z,59.40
2018-03-07T20:39:14.238Z,54.43
2018-03-07T20:41:43.310Z,51.43
2018-03-07T20:44:12.543Z,47.40
2018-03-07T20:46:42.253Z,47.83
2018-03-07T20:49:13.604Z,51.17
2018-03-07T20:51:42.793Z,51.03
2018-03-07T20:54:11.918Z,60.33
2018-03-07T20:56:41.122Z,65.77
2018-03-07T20:59:10.597Z,59.57
2018-03-07T21:01:39.975Z,56.03
2018-03-07T21:04:09.170Z,53.73
2018-03-07T21:06:39.527Z,52.20
2018-03-07T21:09:08.611Z,49.47
2018-03-07T21:11:37.991Z,49.27
2018-03-07T21:14:07.098Z,47.57
2018-03-07T21:16:36.509Z,48.33
2018-03-07T21:19:05.906Z,48.40
2018-03-07T21:21:37.062Z,45.37
2018-03-07T21:24:07.668Z,48.83
2018-03-07T21:26:37.545Z,48.30
2018-03-07T21:29:06.731Z,44.87
2018-03-07T21:31:36.666Z,47.57
2018-03-07T21:34:05.798Z,44.60
2018-03-07T21:36:34.898Z,47.03
2018-03-07T21:39:04.078Z,44.67
2018-03-07T21:41:34.052Z,49.77
2018-03-07T21:44:03.371Z,47.87
2018-03-07T21:46:32.459Z,50.10
2018-03-07T21:49:01.553Z,47.00
2018-03-07T21:51:30.963Z,49.27
2018-03-07T21:54:00.298Z,49.57
2018-03-07T21:56:29.366Z,54.63
2018-03-07T21:58:58.859Z,51.73
2018-03-07T22:01:28.103Z,49.50
2018-03-07T22:03:58.124Z,52.90
2018-03-07T22:06:27.704Z,51.47
2018-03-07T22:08:57.822Z,50.87
2018-03-07T22:11:26.940Z,51.03
2018-03-07T22:13:56.013Z,57.17
2018-03-07T22:16:25.524Z,53.40
2018-03-07T22:18:54.723Z,52.97
2018-03-07T22:21:23.818Z,52.50
2018-03-07T22:23:52.891Z,51.63
2018-03-07T22:26:22.030Z,52.07
2018-03-07T22:28:51.106Z,50.50
2018-03-07T22:31:20.368Z,53.80
2018-03-07T22:33:49.720Z,51.00
2018-03-07T22:36:18.944Z,51.10
2018-03-07T22:38:48.013Z,49.20
2018-03-07T22:41:17.095Z,47.87
2018-03-07T22:43:46.225Z,46.17
2018-03-07T22:46:15.302Z,45.57
2018-03-07T22:48:44.375Z,42.97
2018-03-07T22:51:13.448Z,43.20
2018-03-07T22:53:42.793Z,42.30
2018-03-07T22:56:11.863Z,43.13
2018-03-07T22:58:41.023Z,42.70
2018-03-07T23:01:10.101Z,41.73
2018-03-07T23:03:39.186Z,40.70
2018-03-07T23:06:08.308Z,42.73
2018-03-07T23:08:37.743Z,41.20
2018-03-07T23:11:06.950Z,40.17
2018-03-07T23:13:36.053Z,41.23
2018-03-07T23:16:05.655Z,38.80
2018-03-07T23:18:34.870Z,40.40
2018-03-07T23:21:03.995Z,40.47
2018-03-07T23:23:33.108Z,42.10
2018-03-07T23:26:02.182Z,39.80
2018-03-07T23:28:31.922Z,41.50
2018-03-07T23:31:00.994Z,42.67
2018-03-07T23:33:30.070Z,42.27
2018-03-07T23:35:59.150Z,42.57
2018-03-07T23:38:28.245Z,43.87
2018-03-07T23:40:57.323Z,42.13
2018-03-07T23:43:26.402Z,45.30
2018-03-07T23:45:55.482Z,43.83
2018-03-07T23:48:24.556Z,42.90
2018-03-07T23:50:53.659Z,44.00
2018-03-07T23:53:22.806Z,43.43
2018-03-07T23:55:52.114Z,43.23
2018-03-07T23:58:21.299Z,46.40
